Shirkleville, Indiana
Current Conditions -  °F | °C
As of 3:53 AM on Wednesday 28 Jan 2015 (Local Time) from KHUF Reporting Station
Clear Clear  
Wind Chill: 19°   Ceiling: Unl
Heat Index: 19°   Visibility: 7mi
Dew Point: 15°   Wind: 0mph
Humidity: 85%   Direction: NA
Pressure: 30.3"   Gusts: NA
Location:  39.5107°N, 87.4772°W
Report Text: KHUF 280853Z 00000KT 7SM CLR M07/M09 A3030 RMK AO2 SLP270 I1000 I3000 T10721094 51008
Loading
Personal Weather Stations






























Interactive Weather Map New forecast layout! Learn more

10-Day Weather Forecast

Advertisements
Track Severe Weather on mobile